Time;durP1;ratioP1;P1;durP2;ratioP2;P2;SDS_P1;SDS_P2;PMS_P1;PMS_P2;Temp;Humidity;BMP_temperature;BMP_pressure;BME280_temperature;BME280_humidity;BME280_pressure;Samples;Min_cycle;Max_cycle;Signal;HPM_P1;HPM_P2
2023/04/25 00:02:23;;;;;;;10.68;3.45;;;;;;;10.50;57.69;101046.97;5105858;28;20063;-58
2023/04/25 00:04:52;;;;;;;9.43;3.10;;;;;;;10.49;57.56;101048.00;5101738;28;20082;-59
2023/04/25 00:07:20;;;;;;;14.95;4.80;;;;;;;10.50;57.64;101057.72;5103456;28;20113;-59
2023/04/25 00:09:48;;;;;;;11.05;3.55;;;;;;;10.50;57.70;101051.50;5102851;28;20082;-58
2023/04/25 00:12:16;;;;;;;11.35;3.53;;;;;;;10.48;57.78;101056.28;5100772;28;20064;-59
2023/04/25 00:14:45;;;;;;;12.85;4.28;;;;;;;10.48;57.78;101062.47;5101461;28;20101;-60
2023/04/25 00:17:13;;;;;;;16.40;3.63;;;;;;;10.38;57.88;101049.53;5098327;28;20079;-59
2023/04/25 00:19:40;;;;;;;9.73;3.08;;;;;;;10.47;57.54;101068.06;5100919;28;20058;-59
2023/04/25 00:22:09;;;;;;;14.23;4.40;;;;;;;10.45;57.80;101068.28;5107955;28;20464;-59
2023/04/25 00:24:37;;;;;;;13.20;4.00;;;;;;;10.45;58.02;101068.28;5100527;28;20355;-59
2023/04/25 00:27:05;;;;;;;9.98;3.15;;;;;;;10.44;57.97;101059.41;5103188;28;20071;-59
2023/04/25 00:29:33;;;;;;;17.70;4.15;;;;;;;10.45;57.93;101062.91;5098783;28;20135;-59
2023/04/25 00:32:01;;;;;;;10.82;2.85;;;;;;;10.44;57.88;101058.56;5100738;28;20041;-59
2023/04/25 00:34:29;;;;;;;14.02;3.97;;;;;;;10.43;57.83;101065.81;5099594;28;20067;-59
2023/04/25 00:36:57;;;;;;;12.95;3.88;;;;;;;10.42;57.74;101064.16;5105147;28;20100;-59
2023/04/25 00:39:26;;;;;;;10.18;3.42;;;;;;;10.42;57.95;101060.66;5105588;28;20044;-60
2023/04/25 00:41:55;;;;;;;13.88;3.72;;;;;;;10.41;57.88;101062.50;5101889;28;20047;-60
2023/04/25 00:44:24;;;;;;;9.95;4.03;;;;;;;10.40;57.96;101063.56;5103525;28;20274;-59
2023/04/25 00:46:53;;;;;;;14.75;4.00;;;;;;;10.40;58.10;101058.19;5098534;28;20131;-59
2023/04/25 00:49:20;;;;;;;10.70;3.13;;;;;;;10.40;58.15;101057.38;5099732;28;20067;-60
2023/04/25 00:51:49;;;;;;;11.15;3.80;;;;;;;10.38;58.04;101049.53;5100584;28;20054;-60
2023/04/25 00:54:17;;;;;;;12.02;3.50;;;;;;;10.40;58.24;101054.69;5101633;28;20044;-59
2023/04/25 00:56:46;;;;;;;8.23;3.70;;;;;;;10.40;58.26;101058.19;5099243;28;20075;-59
2023/04/25 00:59:16;;;;;;;9.85;3.60;;;;;;;10.38;58.13;101057.59;5111599;28;20078;-59
2023/04/25 01:01:44;;;;;;;12.90;3.50;;;;;;;10.39;58.20;101058.44;5102762;28;20067;-60
2023/04/25 01:04:13;;;;;;;10.63;4.57;;;;;;;10.38;58.19;101064.84;5104823;28;20039;-60
2023/04/25 01:06:42;;;;;;;9.45;3.47;;;;;;;10.37;58.08;101063.19;5099922;28;20051;-60
2023/04/25 01:09:10;;;;;;;11.25;3.35;;;;;;;10.36;58.39;101064.22;5104341;28;20354;-60
2023/04/25 01:11:39;;;;;;;12.57;3.05;;;;;;;10.35;58.22;101058.03;5098095;28;20078;-60
2023/04/25 01:14:09;;;;;;;11.30;3.80;;;;;;;10.33;58.49;101056.59;5097759;28;20082;-60
2023/04/25 01:16:37;;;;;;;11.73;3.60;;;;;;;10.34;58.17;101063.63;5100552;28;20044;-60
2023/04/25 01:19:10;;;;;;;8.23;4.00;;;;;;;10.34;58.35;101060.94;5110980;28;20469;-61
2023/04/25 01:21:40;;;;;;;9.23;4.00;;;;;;;10.33;58.29;101060.13;5099557;28;20147;-60
2023/04/25 01:24:08;;;;;;;11.80;3.42;;;;;;;10.30;58.39;101054.34;5103107;28;20271;-60
2023/04/25 01:26:36;;;;;;;14.85;3.33;;;;;;;10.29;58.06;101064.28;5100939;28;20048;-59
2023/04/25 01:29:05;;;;;;;8.73;3.30;;;;;;;10.30;58.12;101063.22;5101722;28;20064;-59
2023/04/25 01:31:33;;;;;;;11.35;4.00;;;;;;;10.29;58.12;101068.81;5101175;28;20048;-60
2023/04/25 01:34:01;;;;;;;12.70;3.17;;;;;;;10.28;58.40;101069.84;5104151;28;20339;-59
2023/04/25 01:36:30;;;;;;;11.75;3.78;;;;;;;10.28;58.34;101072.53;5100641;28;20287;-59
2023/04/25 01:38:59;;;;;;;14.40;3.92;;;;;;;10.27;58.17;101070.88;5104598;28;20054;-60
2023/04/25 01:41:27;;;;;;;10.40;3.85;;;;;;;10.25;58.43;101073.78;5099975;28;20581;-59
2023/04/25 01:43:56;;;;;;;12.98;3.25;;;;;;;10.24;58.38;101069.47;5100206;28;20072;-59
2023/04/25 01:46:24;;;;;;;9.90;3.92;;;;;;;10.24;58.38;101071.31;5095698;28;20044;-59
2023/04/25 01:48:52;;;;;;;11.43;4.00;;;;;;;10.23;58.29;101066.97;5097948;28;20051;-59
2023/04/25 01:51:20;;;;;;;6.97;2.75;;;;;;;10.21;58.30;101075.25;5096306;28;20155;-59
2023/04/25 01:53:48;;;;;;;12.75;3.15;;;;;;;10.22;58.25;101079.59;5105837;28;20044;-59
2023/04/25 01:56:18;;;;;;;9.80;3.40;;;;;;;10.20;58.32;101075.47;5100047;28;20111;-59
2023/04/25 01:58:46;;;;;;;11.57;3.97;;;;;;;10.19;58.54;101077.31;5100814;28;20112;-59
2023/04/25 02:01:14;;;;;;;10.75;3.67;;;;;;;10.19;58.62;101082.66;5100413;28;20048;-59
2023/04/25 02:03:42;;;;;;;10.20;3.70;;;;;;;10.19;58.29;101080.00;5103030;28;20067;-60
2023/04/25 02:06:10;;;;;;;10.52;3.17;;;;;;;10.18;58.58;101083.72;5096567;28;20580;-59
2023/04/25 02:08:38;;;;;;;11.02;4.10;;;;;;;10.19;58.75;101087.22;5100227;28;20052;-59
2023/04/25 02:11:05;;;;;;;9.48;3.75;;;;;;;10.17;58.71;101090.13;5092688;28;20056;-59
2023/04/25 02:13:35;;;;;;;15.85;3.75;;;;;;;10.16;58.46;101091.16;5098149;28;20471;-60
2023/04/25 02:16:02;;;;;;;11.57;3.45;;;;;;;10.15;58.72;101097.56;5095314;28;20131;-59
2023/04/25 02:18:31;;;;;;;8.40;3.47;;;;;;;10.15;58.34;101094.06;5101410;28;20080;-59
2023/04/25 02:20:58;;;;;;;13.25;3.47;;;;;;;10.13;58.39;101094.25;5098405;28;20063;-59
2023/04/25 02:23:26;;;;;;;15.02;3.72;;;;;;;10.14;58.87;101089.72;5096881;28;20047;-59
2023/04/25 02:25:55;;;;;;;10.63;3.70;;;;;;;10.13;58.68;101098.81;5096360;28;20453;-59
2023/04/25 02:28:22;;;;;;;10.23;3.47;;;;;;;10.11;58.56;101093.66;5098745;28;20105;-58
2023/04/25 02:30:51;;;;;;;18.77;3.65;;;;;;;10.10;58.72;101100.06;5097459;28;20079;-59
2023/04/25 02:33:20;;;;;;;10.38;4.32;;;;;;;10.09;58.84;101101.91;5094630;28;20044;-61
2023/04/25 02:35:48;;;;;;;12.77;4.50;;;;;;;10.09;58.51;101090.34;5093789;28;20066;-59
2023/04/25 02:38:16;;;;;;;8.73;3.50;;;;;;;10.09;58.96;101101.09;5099393;28;20040;-59
2023/04/25 02:40:44;;;;;;;8.73;3.33;;;;;;;10.08;58.50;101097.59;5099764;28;20111;-59
2023/04/25 02:43:12;;;;;;;10.50;3.92;;;;;;;10.08;58.92;101096.75;5095762;28;20058;-60
2023/04/25 02:45:39;;;;;;;13.02;4.03;;;;;;;10.06;58.99;101105.03;5099952;28;20139;-60
2023/04/25 02:48:09;;;;;;;14.32;4.35;;;;;;;10.07;58.62;101109.38;5101398;28;20068;-60
2023/04/25 02:50:36;;;;;;;12.85;4.13;;;;;;;10.05;58.94;101098.00;5097962;28;20048;-60
2023/04/25 02:53:04;;;;;;;17.17;4.40;;;;;;;10.04;58.55;101103.59;5093964;28;20536;-60
2023/04/25 02:55:32;;;;;;;17.48;4.18;;;;;;;10.04;59.03;101106.28;5096475;28;20084;-60
2023/04/25 02:58:00;;;;;;;10.48;3.92;;;;;;;10.02;58.75;101106.50;5096496;28;20044;-60
2023/04/25 03:00:28;;;;;;;13.75;4.10;;;;;;;10.00;58.56;101095.13;5100512;28;20119;-58
2023/04/25 03:02:56;;;;;;;12.85;3.55;;;;;;;10.00;58.68;101097.00;5099751;28;20413;-59
2023/04/25 03:05:25;;;;;;;12.93;3.88;;;;;;;9.99;58.49;101093.50;5099712;28;20429;-59
2023/04/25 03:07:53;;;;;;;13.02;3.53;;;;;;;9.99;58.77;101095.34;5098248;28;20131;-59
2023/04/25 03:10:21;;;;;;;13.23;4.43;;;;;;;9.98;58.82;101096.38;5093493;28;20048;-60
2023/04/25 03:12:48;;;;;;;13.02;3.88;;;;;;;9.99;58.80;101095.34;5090132;28;20305;-59
2023/04/25 03:15:17;;;;;;;16.05;4.70;;;;;;;9.99;58.59;101106.09;5098833;28;20507;-59
2023/04/25 03:17:44;;;;;;;19.52;5.32;;;;;;;9.96;58.73;101104.66;5100516;28;20050;-59
2023/04/25 03:20:12;;;;;;;9.88;3.35;;;;;;;9.96;58.89;101107.34;5096809;28;20104;-59
2023/04/25 03:22:42;;;;;;;13.75;4.30;;;;;;;9.96;59.02;101103.81;5094170;28;20056;-59
2023/04/25 03:25:09;;;;;;;13.32;4.47;;;;;;;9.95;58.52;101110.22;5105953;28;20082;-59
2023/04/25 03:27:37;;;;;;;11.25;4.00;;;;;;;9.94;58.87;101113.97;5094396;28;20044;-59
2023/04/25 03:30:07;;;;;;;14.10;4.00;;;;;;;9.93;58.72;101109.63;5094995;28;20063;-59
2023/04/25 03:32:35;;;;;;;18.95;4.72;;;;;;;9.92;58.62;101118.72;5097565;28;20139;-59
2023/04/25 03:35:03;;;;;;;11.63;3.53;;;;;;;9.91;58.65;101109.00;5093473;28;20063;-59
2023/04/25 03:37:31;;;;;;;15.43;4.40;;;;;;;9.90;58.90;101116.25;5093317;28;20409;-59
2023/04/25 03:40:00;;;;;;;8.90;3.75;;;;;;;9.89;58.60;101108.41;5099349;28;20079;-59
2023/04/25 03:42:28;;;;;;;12.60;3.83;;;;;;;9.87;58.60;101113.97;5107917;28;20236;-59
2023/04/25 03:44:55;;;;;;;17.10;3.92;;;;;;;9.87;59.00;101115.84;5102523;28;20050;-59
2023/04/25 03:47:23;;;;;;;13.32;3.92;;;;;;;9.87;58.55;101116.66;5109487;28;20044;-59
2023/04/25 03:49:51;;;;;;;12.80;3.92;;;;;;;9.87;58.95;101111.28;5102355;28;20043;-59
2023/04/25 03:52:19;;;;;;;14.57;4.43;;;;;;;9.87;58.55;101113.16;5103418;28;20265;-59
2023/04/25 03:54:47;;;;;;;15.02;4.07;;;;;;;9.85;58.42;101113.34;5101550;28;20056;-59
2023/04/25 03:57:16;;;;;;;10.50;4.63;;;;;;;9.85;59.06;101112.53;5103321;28;20516;-59
2023/04/25 03:59:44;;;;;;;11.98;4.10;;;;;;;9.84;58.74;101117.06;5102942;28;20079;-59
2023/04/25 04:02:11;;;;;;;17.02;4.00;;;;;;;9.83;58.98;101117.28;5100261;28;20040;-59
2023/04/25 04:04:39;;;;;;;14.57;3.90;;;;;;;9.83;58.83;101117.28;5091358;28;20044;-59
2023/04/25 04:07:07;;;;;;;13.38;4.35;;;;;;;9.74;58.83;101106.78;5093248;28;20097;-59
2023/04/25 04:09:35;;;;;;;12.63;3.80;;;;;;;9.83;58.76;101123.47;5106441;28;20048;-59
2023/04/25 04:12:03;;;;;;;10.73;3.55;;;;;;;9.84;58.93;101124.31;5105700;28;20074;-60
2023/04/25 04:14:32;;;;;;;15.27;4.47;;;;;;;9.79;58.88;101125.75;5097654;28;20082;-59
2023/04/25 04:17:00;;;;;;;11.63;3.35;;;;;;;9.83;59.02;101133.41;5090788;28;20040;-60
2023/04/25 04:19:28;;;;;;;16.55;4.32;;;;;;;9.83;58.71;101133.41;5098598;28;20048;-59
2023/04/25 04:21:56;;;;;;;10.00;3.58;;;;;;;9.83;58.78;101128.84;5098960;28;20040;-60
2023/04/25 04:24:23;;;;;;;8.95;2.97;;;;;;;9.82;58.71;101135.25;5101518;28;20072;-60
2023/04/25 04:26:51;;;;;;;12.88;4.32;;;;;;;9.82;59.44;101137.94;5090495;28;20050;-60
2023/04/25 04:29:21;;;;;;;12.60;3.80;;;;;;;9.82;58.98;101139.81;5100459;28;20044;-59
2023/04/25 04:31:52;;;;;;;11.43;3.97;;;;;;;9.81;59.42;101138.97;5098354;28;20059;-59
2023/04/25 04:34:20;;;;;;;13.23;3.70;;;;;;;9.81;58.96;101143.50;5095500;28;20143;-59
2023/04/25 04:36:48;;;;;;;12.30;4.03;;;;;;;9.81;59.09;101155.06;5100438;28;20074;-59
2023/04/25 04:39:16;;;;;;;12.13;3.33;;;;;;;9.79;58.96;101152.59;5092851;28;20071;-59
2023/04/25 04:41:44;;;;;;;10.80;3.97;;;;;;;9.80;59.29;101158.78;5096683;28;20112;-59
2023/04/25 04:44:12;;;;;;;12.15;4.05;;;;;;;9.80;59.07;101156.09;5102560;28;20039;-59
2023/04/25 04:46:41;;;;;;;12.30;3.53;;;;;;;9.79;58.96;101157.97;5097367;28;20103;-60
2023/04/25 04:49:13;;;;;;;11.18;3.97;;;;;;;9.78;59.55;101153.63;5100420;28;20040;-59
2023/04/25 04:51:44;;;;;;;14.77;3.47;;;;;;;9.77;59.55;101157.34;5098782;28;20056;-60
2023/04/25 04:54:11;;;;;;;15.18;4.05;;;;;;;9.77;59.03;101156.53;5096284;28;20075;-60
2023/04/25 04:56:40;;;;;;;17.35;4.05;;;;;;;9.76;59.25;101162.94;5097760;28;20037;-60
2023/04/25 04:59:07;;;;;;;17.88;4.10;;;;;;;9.75;59.47;101163.97;5100139;28;20052;-60
2023/04/25 05:01:36;;;;;;;16.10;4.45;;;;;;;9.74;58.61;101163.13;5100879;28;20078;-60
2023/04/25 05:04:04;;;;;;;11.55;4.88;;;;;;;9.70;58.99;101163.75;5103575;28;20043;-60
2023/04/25 05:06:33;;;;;;;13.82;5.00;;;;;;;9.71;59.34;101185.03;5088437;28;20065;-66
2023/04/25 05:09:00;;;;;;;16.52;4.10;;;;;;;9.69;58.90;101187.09;5094693;28;20127;-64
2023/04/25 05:11:28;;;;;;;14.55;4.70;;;;;;;9.69;59.13;101194.31;5102323;28;20051;-61
2023/04/25 05:13:56;;;;;;;15.82;4.20;;;;;;;9.66;59.11;101190.19;5103454;28;20040;-60
2023/04/25 05:16:24;;;;;;;17.92;4.80;;;;;;;9.65;58.73;101193.91;5096512;28;20099;-59
2023/04/25 05:18:52;;;;;;;12.95;4.13;;;;;;;9.62;58.48;101199.69;5103277;28;20040;-61
2023/04/25 05:21:19;;;;;;;14.30;6.20;;;;;;;9.62;59.31;101202.38;5103149;28;20544;-62
2023/04/25 05:23:49;;;;;;;14.43;4.88;;;;;;;9.62;58.74;101198.88;5104639;28;20455;-61
2023/04/25 05:26:17;;;;;;;13.55;4.68;;;;;;;9.59;58.69;101202.78;5100734;28;20063;-62
2023/04/25 05:28:45;;;;;;;11.63;4.30;;;;;;;9.61;59.22;101213.31;4742936;28;9999888;-61
2023/04/25 05:31:12;;;;;;;19.15;4.63;;;;;;;9.62;59.19;101210.41;5096772;28;20149;-66
2023/04/25 05:33:40;;;;;;;14.43;4.30;;;;;;;9.62;59.08;101202.38;5100164;28;20174;-61
2023/04/25 05:36:09;;;;;;;19.92;4.90;;;;;;;9.59;59.30;101200.09;5091750;28;20046;-60
2023/04/25 05:38:36;;;;;;;14.95;4.18;;;;;;;9.60;59.02;101211.66;5101639;28;20052;-60
2023/04/25 05:41:05;;;;;;;12.25;3.60;;;;;;;9.59;59.19;101210.84;5098255;28;20043;-61
2023/04/25 05:43:33;;;;;;;15.38;4.57;;;;;;;9.58;58.90;101211.88;5102725;28;20115;-60
2023/04/25 05:46:01;;;;;;;14.75;4.45;;;;;;;9.58;59.34;101219.91;5111216;28;20071;-61
2023/04/25 05:48:29;;;;;;;16.95;5.03;;;;;;;9.55;59.46;101208.78;5100542;28;20051;-61
2023/04/25 05:50:57;;;;;;;13.77;3.90;;;;;;;9.58;58.87;101225.28;5105425;28;20046;-61
2023/04/25 05:53:25;;;;;;;15.02;4.93;;;;;;;9.55;59.02;101224.88;5102434;28;20072;-63
2023/04/25 05:55:52;;;;;;;12.45;4.40;;;;;;;9.56;59.21;101230.03;5101186;28;20087;-63
2023/04/25 05:58:22;;;;;;;17.38;4.13;;;;;;;9.56;59.06;101231.88;5100765;28;20123;-63
2023/04/25 06:00:50;;;;;;;16.83;4.82;;;;;;;9.53;58.94;101235.81;5088418;28;20129;-64
2023/04/25 06:03:17;;;;;;;15.60;4.85;;;;;;;9.54;58.92;101237.47;5098090;28;20111;-64
2023/04/25 06:05:47;;;;;;;11.63;4.05;;;;;;;9.55;59.39;101238.28;5094264;28;20116;-63
2023/04/25 06:08:15;;;;;;;15.93;4.10;;;;;;;9.60;59.23;101241.19;5086966;28;20037;-62
2023/04/25 06:10:43;;;;;;;17.38;3.85;;;;;;;9.64;59.31;101245.94;5087599;28;20087;-61
2023/04/25 06:13:11;;;;;;;15.48;4.53;;;;;;;9.83;58.80;101248.81;5101462;28;20131;-64
2023/04/25 06:15:40;;;;;;;26.75;6.60;;;;;;;9.98;58.79;101252.94;5099284;28;20067;-62
2023/04/25 06:18:08;;;;;;;17.75;4.68;;;;;;;10.13;57.40;101252.72;5095654;28;20040;-62
2023/04/25 06:20:36;;;;;;;18.63;4.97;;;;;;;10.24;57.00;101251.28;5098142;28;20059;-62
2023/04/25 06:23:03;;;;;;;14.85;4.78;;;;;;;10.39;56.56;101249.19;5087126;28;20072;-62
2023/04/25 06:25:31;;;;;;;16.83;4.22;;;;;;;10.51;56.46;101249.34;5099621;28;20051;-63
2023/04/25 06:27:59;;;;;;;22.38;4.72;;;;;;;10.65;56.19;101251.75;5099149;28;20580;-63
2023/04/25 06:30:27;;;;;;;22.90;4.63;;;;;;;10.80;55.37;101250.66;5101627;28;20086;-63
2023/04/25 06:32:56;;;;;;;18.13;4.05;;;;;;;10.95;54.70;101253.91;5100314;28;20052;-63
2023/04/25 06:35:24;;;;;;;15.07;4.22;;;;;;;11.02;54.22;101254.72;5091814;28;20566;-63
2023/04/25 06:37:52;;;;;;;14.45;4.45;;;;;;;11.05;53.98;101259.66;5091853;28;20135;-63
2023/04/25 06:40:20;;;;;;;20.70;4.68;;;;;;;11.00;53.59;101259.47;5092726;28;20168;-62
2023/04/25 06:42:47;;;;;;;12.02;4.68;;;;;;;10.95;53.49;101262.81;5091808;28;20048;-62
2023/04/25 06:45:15;;;;;;;14.13;3.92;;;;;;;10.93;53.02;101270.25;5088500;28;20050;-63
2023/04/25 06:47:43;;;;;;;11.32;3.53;;;;;;;11.02;52.63;101268.16;5096312;28;20054;-63
2023/04/25 06:50:12;;;;;;;10.85;3.50;;;;;;;10.96;52.71;101279.78;5098871;28;20044;-63
2023/04/25 06:52:40;;;;;;;13.18;3.53;;;;;;;10.74;52.13;101277.38;5087200;28;20044;-63
2023/04/25 06:55:09;;;;;;;16.23;3.67;;;;;;;10.50;52.47;101280.75;5087126;28;20045;-62
2023/04/25 06:57:37;;;;;;;12.40;3.25;;;;;;;10.38;52.82;101280.59;5089331;28;20044;-63
2023/04/25 07:00:09;;;;;;;9.73;2.50;;;;;;;10.30;52.86;101282.69;5096906;28;20093;-62
2023/04/25 07:02:37;;;;;;;14.93;3.08;;;;;;;10.20;52.64;101274.22;5097465;28;20116;-63
2023/04/25 07:05:05;;;;;;;8.70;2.42;;;;;;;10.19;52.31;101281.44;5095574;28;20059;-63
2023/04/25 07:07:37;;;;;;;7.90;2.35;;;;;;;10.14;52.35;101277.72;5095636;28;20048;-63
2023/04/25 07:10:06;;;;;;;15.35;2.63;;;;;;;10.11;52.57;101290.53;5097701;28;20151;-62
2023/04/25 07:12:34;;;;;;;10.20;2.78;;;;;;;10.08;52.09;101290.13;5094897;28;20561;-63
2023/04/25 07:15:05;;;;;;;13.25;2.97;;;;;;;10.11;52.36;101298.59;5085730;28;20112;-62
2023/04/25 07:17:34;;;;;;;11.35;2.33;;;;;;;10.17;51.74;101301.47;5091909;28;20052;-62
2023/04/25 07:20:03;;;;;;;10.70;2.30;;;;;;;10.18;52.10;101301.25;5102790;28;20066;-62
2023/04/25 07:22:31;;;;;;;12.07;2.78;;;;;;;10.18;51.65;101303.13;5102911;28;20071;-63
2023/04/25 07:25:00;;;;;;;11.10;2.28;;;;;;;10.23;51.60;101300.66;5100919;28;20063;-63
2023/04/25 07:27:28;;;;;;;6.50;1.85;;;;;;;10.28;50.66;101303.56;5099715;28;20060;-63
2023/04/25 07:29:56;;;;;;;10.40;2.67;;;;;;;10.30;50.90;101301.50;5097186;28;20054;-62
2023/04/25 07:32:24;;;;;;;8.35;1.85;;;;;;;10.26;50.51;101306.47;5097776;28;20067;-63
2023/04/25 07:34:52;;;;;;;8.13;1.75;;;;;;;10.15;50.46;101306.22;5096129;28;20082;-62
2023/04/25 07:37:20;;;;;;;13.27;2.35;;;;;;;10.11;50.98;101308.50;5097258;28;20103;-62
2023/04/25 07:39:47;;;;;;;8.93;2.22;;;;;;;10.04;50.54;101310.38;5102142;28;20126;-62
2023/04/25 07:42:16;;;;;;;8.75;2.08;;;;;;;10.14;50.18;101309.94;5102823;28;20108;-63
2023/04/25 07:44:44;;;;;;;14.88;2.78;;;;;;;10.15;49.66;101317.78;5089680;28;20056;-63
2023/04/25 07:47:12;;;;;;;9.52;2.58;;;;;;;10.13;49.62;101314.50;5097398;28;20043;-66
2023/04/25 07:49:40;;;;;;;8.18;1.95;;;;;;;10.05;49.95;101320.06;5098114;28;20052;-63
2023/04/25 07:52:08;;;;;;;11.00;2.10;;;;;;;10.02;49.84;101320.47;5094765;28;20052;-63
2023/04/25 07:54:36;;;;;;;7.45;1.80;;;;;;;9.98;50.04;101329.97;5099118;28;20525;-64
2023/04/25 07:57:06;;;;;;;9.00;2.58;;;;;;;9.98;49.93;101332.66;5100494;28;20207;-66
2023/04/25 07:59:35;;;;;;;9.55;2.85;;;;;;;9.97;50.04;101333.69;5099397;28;20071;-62
2023/04/25 08:02:03;;;;;;;9.88;2.72;;;;;;;10.00;50.20;101334.13;5096550;28;20082;-62
2023/04/25 08:04:31;;;;;;;17.15;2.75;;;;;;;10.01;50.48;101335.78;5100419;28;20040;-62
2023/04/25 08:06:59;;;;;;;9.55;2.50;;;;;;;10.07;50.07;101342.19;5094520;28;20059;-61
2023/04/25 08:09:27;;;;;;;6.22;1.83;;;;;;;10.23;50.20;101344.47;5091973;28;20052;-62
2023/04/25 08:11:55;;;;;;;18.17;2.60;;;;;;;10.56;49.35;101351.66;5102729;28;20123;-62
2023/04/25 08:14:22;;;;;;;7.60;1.55;;;;;;;10.66;48.24;101347.50;5101084;28;20048;-61
2023/04/25 08:16:52;;;;;;;14.18;2.83;;;;;;;10.84;47.97;101357.59;5099223;28;20090;-61
2023/04/25 08:19:19;;;;;;;9.73;1.95;;;;;;;10.88;47.86;101352.63;5098037;28;20512;-61
2023/04/25 08:21:47;;;;;;;10.27;2.35;;;;;;;11.02;47.45;101363.13;5102774;28;20043;-62
2023/04/25 08:24:15;;;;;;;12.82;2.60;;;;;;;11.23;46.92;101369.25;5101916;28;20069;-63
2023/04/25 08:26:42;;;;;;;7.43;2.00;;;;;;;11.16;46.78;101366.59;5100189;28;20048;-62
2023/04/25 08:29:11;;;;;;;6.45;1.70;;;;;;;11.08;47.17;101375.72;5092278;28;20116;-65
2023/04/25 08:31:39;;;;;;;8.90;2.88;;;;;;;10.98;47.51;101372.66;5103759;28;20524;-63
2023/04/25 08:34:08;;;;;;;10.07;2.28;;;;;;;10.84;47.74;101379.09;5101488;28;20079;-63
2023/04/25 08:36:36;;;;;;;11.10;3.20;;;;;;;10.76;47.73;101384.69;5102445;28;20078;-62
2023/04/25 08:39:07;;;;;;;6.65;1.60;;;;;;;10.68;48.39;101392.97;5098568;28;20040;-62
2023/04/25 08:41:35;;;;;;;9.77;2.55;;;;;;;10.53;48.74;101387.00;5093293;28;20048;-62
2023/04/25 08:44:04;;;;;;;10.98;2.47;;;;;;;10.42;49.12;101391.97;5096570;28;20112;-63
2023/04/25 08:46:32;;;;;;;10.52;3.28;;;;;;;10.38;49.45;101392.63;5091598;28;20052;-62
2023/04/25 08:49:02;;;;;;;5.88;2.08;;;;;;;10.31;49.53;101403.38;5089946;28;20048;-63
2023/04/25 08:51:33;;;;;;;12.63;2.45;;;;;;;10.19;49.30;101404.16;5097961;28;20083;-63
2023/04/25 08:54:10;;;;;;;10.45;2.17;;;;;;;10.11;50.13;101405.19;5099417;28;20044;-63
2023/04/25 08:56:59;;;;;;;11.45;2.45;;;;;;;10.04;50.24;101407.88;5101093;28;20059;-63
2023/04/25 08:59:27;;;;;;;11.30;1.98;;;;;;;10.04;50.79;101413.22;5100738;28;20059;-63
2023/04/25 09:01:55;;;;;;;11.60;2.88;;;;;;;9.97;50.80;101417.78;5099154;28;20076;-63
2023/04/25 09:04:23;;;;;;;11.85;3.10;;;;;;;9.87;49.35;101425.38;5098461;28;20048;-63
2023/04/25 09:06:52;;;;;;;7.18;2.38;;;;;;;9.87;49.75;101430.75;5096456;28;20040;-63
2023/04/25 09:09:21;;;;;;;12.27;2.60;;;;;;;9.89;50.45;101434.06;5100977;28;20058;-63
2023/04/25 09:11:49;;;;;;;14.00;2.08;;;;;;;9.84;49.70;101428.47;5100904;28;20072;-64
2023/04/25 09:14:20;;;;;;;9.85;2.15;;;;;;;9.86;48.88;101445.22;5101104;28;20199;-61
2023/04/25 09:17:02;;;;;;;7.57;2.30;;;;;;;9.92;49.42;101440.88;5093490;28;20083;-63
2023/04/25 09:19:31;;;;;;;12.32;2.22;;;;;;;9.92;49.40;101457.00;5095454;28;20040;-63
2023/04/25 09:22:09;;;;;;;12.68;2.05;;;;;;;9.88;49.59;101453.06;5098599;28;20520;-62
2023/04/25 09:24:38;;;;;;;8.65;2.03;;;;;;;9.83;49.99;101437.56;5096491;28;20366;-62
2023/04/25 09:27:07;;;;;;;15.15;2.67;;;;;;;9.92;49.38;101455.13;5100396;28;20043;-62
2023/04/25 09:29:37;;;;;;;8.85;2.15;;;;;;;9.90;49.56;101457.19;5099993;28;20048;-62
2023/04/25 09:32:13;;;;;;;5.97;1.60;;;;;;;9.90;49.11;101456.38;5102966;28;20048;-62
2023/04/25 09:34:42;;;;;;;6.18;2.35;;;;;;;9.88;49.42;101466.47;5100024;28;20062;-62
2023/04/25 09:37:12;;;;;;;9.60;2.08;;;;;;;9.89;49.59;101468.13;5089297;28;20051;-63
2023/04/25 09:39:40;;;;;;;13.32;2.15;;;;;;;9.90;49.70;101467.94;5088599;28;20097;-62
2023/04/25 09:42:10;;;;;;;6.57;1.70;;;;;;;9.91;49.64;101466.09;5090713;28;20056;-63
2023/04/25 09:44:43;;;;;;;6.95;1.58;;;;;;;9.88;48.79;101467.31;5098494;28;20060;-62
2023/04/25 09:47:12;;;;;;;17.15;3.20;;;;;;;9.88;48.90;101478.06;5098469;28;20064;-64
2023/04/25 09:49:42;;;;;;;6.28;1.63;;;;;;;9.95;48.66;101478.06;5095605;28;20067;-64
2023/04/25 09:52:15;;;;;;;8.13;1.77;;;;;;;9.96;48.80;101483.25;5094232;28;20055;-62
2023/04/25 09:54:42;;;;;;;5.90;1.45;;;;;;;9.96;49.49;101475.19;5099675;28;20044;-62
2023/04/25 09:57:13;;;;;;;5.57;2.50;;;;;;;10.01;49.60;101478.09;5087663;28;20048;-62
2023/04/25 09:59:45;;;;;;;7.15;1.92;;;;;;;10.04;49.33;101476.84;5085899;28;20055;-62
2023/04/25 10:02:14;;;;;;;6.60;1.88;;;;;;;10.05;49.50;101484.72;5095251;28;20040;-62
2023/04/25 10:04:43;;;;;;;5.47;1.38;;;;;;;10.07;48.55;101479.13;5095155;28;20294;-63
2023/04/25 10:07:13;;;;;;;8.07;2.00;;;;;;;10.09;49.52;101483.28;5100901;28;20208;-65
2023/04/25 10:09:41;;;;;;;8.23;1.98;;;;;;;10.13;49.41;101481.00;5096468;28;20162;-63
2023/04/25 10:12:09;;;;;;;7.20;2.15;;;;;;;10.14;49.41;101474.59;5095382;28;20082;-62
2023/04/25 10:14:37;;;;;;;9.00;1.60;;;;;;;10.15;49.75;101478.13;5091206;28;20595;-62
2023/04/25 10:17:05;;;;;;;7.95;1.92;;;;;;;10.16;49.53;101480.59;5096489;28;20232;-61
2023/04/25 10:19:33;;;;;;;6.13;1.65;;;;;;;10.15;49.50;101473.56;5094384;28;20108;-62
2023/04/25 10:22:08;;;;;;;6.63;1.58;;;;;;;10.17;49.96;101468.84;5095856;28;20047;-61
2023/04/25 10:24:39;;;;;;;7.70;1.55;;;;;;;10.17;49.97;101473.38;5096563;28;20044;-62
2023/04/25 10:27:07;;;;;;;6.80;2.08;;;;;;;10.17;49.72;101474.19;5094824;28;20046;-62
2023/04/25 10:29:36;;;;;;;11.52;1.65;;;;;;;10.22;49.94;101479.81;5097385;28;20041;-62
2023/04/25 10:32:04;;;;;;;13.52;2.10;;;;;;;10.23;49.83;101481.47;5095328;28;20098;-62
2023/04/25 10:34:42;;;;;;;6.45;1.77;;;;;;;10.31;49.43;101478.59;5094564;28;20567;-62
2023/04/25 10:37:11;;;;;;;5.38;1.08;;;;;;;10.36;49.19;101480.66;5101758;28;20482;-62
2023/04/25 10:39:42;;;;;;;6.13;1.73;;;;;;;10.41;49.23;101483.53;5094602;28;20144;-60
2023/04/25 10:42:09;;;;;;;6.45;2.58;;;;;;;10.46;48.44;101477.53;5098064;28;20119;-61
2023/04/25 10:44:39;;;;;;;8.93;1.92;;;;;;;10.46;48.81;101485.59;5094465;28;20048;-62
2023/04/25 10:47:09;;;;;;;6.63;1.65;;;;;;;10.49;48.52;101485.19;5094205;28;20068;-61
2023/04/25 10:49:39;;;;;;;7.70;2.17;;;;;;;10.48;47.67;101472.78;5094372;28;20473;-61
2023/04/25 10:52:15;;;;;;;4.65;1.40;;;;;;;10.44;47.31;101489.34;5096141;28;20067;-62
2023/04/25 10:54:47;;;;;;;4.70;1.60;;;;;;;10.47;47.10;101484.56;5097304;28;20054;-62
2023/04/25 10:57:28;;;;;;;4.57;1.33;;;;;;;10.48;47.11;101479.00;5101711;28;20040;-64
2023/04/25 11:00:00;;;;;;;9.40;2.55;;;;;;;10.48;47.72;101484.38;5090285;28;20064;-64
2023/04/25 11:02:29;;;;;;;6.63;1.67;;;;;;;10.47;47.13;101485.41;5101399;28;20051;-64
2023/04/25 11:04:57;;;;;;;4.82;1.35;;;;;;;10.49;46.81;101483.34;5096884;28;20489;-62
2023/04/25 11:07:34;;;;;;;7.30;1.92;;;;;;;10.49;46.98;101486.03;5094076;28;20076;-64
2023/04/25 11:10:04;;;;;;;5.35;1.45;;;;;;;10.55;47.55;101479.00;5097422;28;20062;-64
2023/04/25 11:12:32;;;;;;;6.90;1.92;;;;;;;10.57;47.70;101491.19;5102116;28;20052;-63
2023/04/25 11:15:02;;;;;;;3.85;1.70;;;;;;;10.54;47.69;101482.72;5099803;28;20048;-64
2023/04/25 11:17:30;;;;;;;6.45;1.70;;;;;;;10.56;47.73;101486.84;5098578;28;20059;-63
2023/04/25 11:19:58;;;;;;;10.70;1.80;;;;;;;10.56;47.67;101499.47;5098861;28;20556;-63
2023/04/25 11:22:29;;;;;;;7.30;1.92;;;;;;;10.50;47.75;101490.38;5090036;28;20083;-63
2023/04/25 11:24:57;;;;;;;6.93;1.25;;;;;;;10.49;47.33;101491.41;5093051;28;20036;-64
2023/04/25 11:27:26;;;;;;;11.32;2.10;;;;;;;10.49;47.68;101494.09;5093500;28;20080;-64
2023/04/25 11:29:54;;;;;;;9.73;2.78;;;;;;;10.47;47.78;101492.63;5095235;28;20479;-64